utilisation pie
utilisation bar
humidity graph
temperature graph
Station id: f3370e for 2 days

start:   stop:  

day time in temp out temp in RH out RH H quota rule action
2020-12-04 00:12:07 2.2 1.1 81 89 102 c 0
2020-12-04 00:42:20 2.2 1.2 81 89 103 c 0
2020-12-04 01:12:32 2.2 1.2 81 89 102 c 0
2020-12-04 01:42:44 2.2 1.3 81 88 102 c 0
2020-12-04 02:12:56 2.2 1.4 81 88 103 c 0
2020-12-04 02:43:08 2.1 1.3 81 90 105 c 0
2020-12-04 03:13:21 2.2 1.3 81 90 105 c 0
2020-12-04 03:43:33 2.2 1.3 81 90 105 c 0
2020-12-04 04:13:45 2.1 1.3 81 90 105 c 0
2020-12-04 04:43:57 2.1 1.4 81 90 105 c 0
2020-12-04 05:14:09 2.2 1.3 81 90 104 c 0
2020-12-04 05:44:21 2.2 1.0 81 92 105 c 0
2020-12-04 06:14:33 2.1 1.1 81 93 107 c 0
2020-12-04 06:44:46 2.1 1.6 81 90 107 c 0
2020-12-04 07:14:58 2.1 1.8 81 89 107 c 0
2020-12-04 07:45:10 2.1 1.8 81 91 110 c 0
2020-12-04 08:15:22 2.1 1.9 81 91 110 c 0
2020-12-04 08:45:34 2.1 2.1 81 91 112 c 0
2020-12-04 09:15:46 2.1 2.2 82 90 111 c 0
2020-12-04 09:45:58 2.0 2.5 82 86 109 c 0
2020-12-04 10:16:10 2.0 2.5 82 85 108 c 0
2020-12-04 10:46:23 2.1 2.3 81 87 108 c 0
2020-12-04 11:16:35 2.1 2.5 81 87 110 c 0
2020-12-04 11:46:52 2.1 2.7 82 86 110 c 0
2020-12-04 12:17:05 2.2 3.0 82 87 113 c 0
2020-12-04 12:47:17 2.2 3.1 82 90 117 c 0
2020-12-04 13:17:29 2.3 3.2 82 90 117 c 0
2020-12-04 13:47:47 2.4 3.3 86 90 111 c 0
2020-12-04 14:18:04 3.5 3.5 87 91 105 c 0
2020-12-04 14:48:21 3.8 3.4 84 93 108 c 0
2020-12-04 15:18:39 4.0 3.3 83 93 106 c 0
2020-12-04 15:48:56 4.0 3.3 83 95 110 c 0
2020-12-04 16:19:13 3.9 3.3 83 94 109 c 0
2020-12-04 16:49:31 3.8 3.7 83 89 107 c 0
2020-12-04 17:19:43 3.6 3.5 83 90 108 c 0
2020-12-04 17:49:55 3.5 3.6 83 90 109 c 0
2020-12-04 18:20:12 3.5 3.8 83 90 111 c 0
2020-12-04 18:50:30 3.5 3.9 83 89 111 c 0
2020-12-04 19:20:47 3.4 3.9 83 89 111 c 0
2020-12-04 19:51:04 3.4 4.2 83 88 112 c 0
2020-12-04 20:21:21 3.4 4.3 83 89 114 c 0
2020-12-04 20:51:39 3.4 4.2 83 89 113 c 0
2020-12-04 21:21:51 3.4 4.4 83 89 115 c 0
2020-12-04 21:52:03 3.4 4.3 83 89 114 c 0
2020-12-04 22:22:20 3.4 4.0 83 89 112 c 0
2020-12-04 22:52:38 3.3 3.5 83 89 108 c 0
2020-12-04 23:22:55 3.3 3.4 83 91 110 c 0
2020-12-04 23:53:12 3.3 3.3 83 91 110 c 0
2020-12-05 00:23:29 3.3 3.3 83 91 110 c 0
2020-12-05 00:53:47 3.2 3.2 83 94 113 c 0
2020-12-05 01:23:59 3.2 3.3 83 94 114 c 0
2020-12-05 01:54:11 3.2 3.2 83 94 113 c 0
2020-12-05 02:24:28 3.2 3.1 83 93 111 c 0
2020-12-05 02:54:45 3.2 3.1 83 93 111 c 0
2020-12-05 03:25:02 3.2 3.2 83 93 112 c 0
2020-12-05 03:55:20 3.2 3.7 83 93 116 c 0
2020-12-05 04:25:37 3.2 4.0 83 91 116 c 0
2020-12-05 04:55:54 3.2 3.9 83 90 114 c 0
2020-12-05 05:26:07 3.1 3.8 83 90 113 c 0
2020-12-05 05:56:19 3.1 3.8 83 90 113 c 0
2020-12-05 06:26:36 3.1 3.9 83 93 118 c 0
2020-12-05 06:56:53 3.1 3.9 83 93 118 c 0
2020-12-05 07:27:11 3.2 3.9 83 94 119 c 0
2020-12-05 07:57:28 3.2 4.2 84 94 120 c 0
2020-12-05 08:27:45 3.2 4.7 84 94 124 c 0
2020-12-05 08:58:02 3.3 5.3 84 92 126 c 0
2020-12-05 09:28:14 3.3 5.1 84 92 123 c 0
2020-12-05 09:58:27 3.4 5.1 84 92 123 c 0
2020-12-05 10:28:44 3.4 5.1 85 92 122 c 0
2020-12-05 10:58:56 3.5 4.9 85 94 122 c 0
2020-12-05 11:29:13 3.5 5.2 85 93 123 c 0
2020-12-05 11:59:31 3.6 5.6 85 93 125 c 0
2020-12-05 12:29:48 3.6 6.0 85 91 125 c 0
2020-12-05 13:00:00 3.7 6.0 86 91 124 c 0
2020-12-05 13:30:12 4.0 6.2 91 90 115 c 0
2020-12-05 14:00:24 4.5 6.3 92 90 110 c 0


2020-12-05 15:26:00 CET